sensor_id;sensor_type;location;lat;lon;timestamp;pressure;altitude;pressure_sealevel;temperature;humidity
11912;BME280;6016;41.928;25.556;2023-05-07T00:00:35;99345.06;;;17.06;64.26
11912;BME280;6016;41.928;25.556;2023-05-07T00:03:02;99284.66;;;16.58;64.48
11912;BME280;6016;41.928;25.556;2023-05-07T00:05:30;99353.75;;;17.00;64.19
11912;BME280;6016;41.928;25.556;2023-05-07T00:07:57;99354.25;;;16.95;64.80
11912;BME280;6016;41.928;25.556;2023-05-07T00:10:24;99345.59;;;16.93;64.64
11912;BME280;6016;41.928;25.556;2023-05-07T00:12:51;99252.34;;;16.30;64.66
11912;BME280;6016;41.928;25.556;2023-05-07T00:15:18;99341.81;;;16.87;64.86
11912;BME280;6016;41.928;25.556;2023-05-07T00:17:45;99349.31;;;16.84;64.88
11912;BME280;6016;41.928;25.556;2023-05-07T00:20:12;99340.00;;;16.80;65.61
11912;BME280;6016;41.928;25.556;2023-05-07T00:22:40;99301.38;;;16.52;65.04
11912;BME280;6016;41.928;25.556;2023-05-07T00:25:07;99195.66;;;15.81;65.74
11912;BME280;6016;41.928;25.556;2023-05-07T00:27:35;99316.47;;;16.60;65.84
11912;BME280;6016;41.928;25.556;2023-05-07T00:30:02;99331.88;;;16.73;65.29
11912;BME280;6016;41.928;25.556;2023-05-07T00:32:29;99340.06;;;16.71;65.09
11912;BME280;6016;41.928;25.556;2023-05-07T00:34:56;99162.81;;;15.49;65.09
11912;BME280;6016;41.928;25.556;2023-05-07T00:37:23;99342.09;;;16.61;65.76
11912;BME280;6016;41.928;25.556;2023-05-07T00:39:51;99131.13;;;15.31;65.09
11912;BME280;6016;41.928;25.556;2023-05-07T00:42:18;99341.09;;;16.62;65.23
11912;BME280;6016;41.928;25.556;2023-05-07T00:44:45;99339.44;;;16.61;65.58
11912;BME280;6016;41.928;25.556;2023-05-07T00:47:12;99338.94;;;16.57;65.22
11912;BME280;6016;41.928;25.556;2023-05-07T00:49:42;99337.28;;;16.56;65.20
11912;BME280;6016;41.928;25.556;2023-05-07T00:52:12;99338.28;;;16.55;65.71
11912;BME280;6016;41.928;25.556;2023-05-07T00:54:40;99257.66;;;15.90;65.90
11912;BME280;6016;41.928;25.556;2023-05-07T00:57:09;99329.66;;;16.45;65.83
11912;BME280;6016;41.928;25.556;2023-05-07T00:59:37;99139.66;;;15.18;65.37
11912;BME280;6016;41.928;25.556;2023-05-07T01:02:05;99325.91;;;16.31;66.83
11912;BME280;6016;41.928;25.556;2023-05-07T01:04:32;99248.16;;;15.79;66.55
11912;BME280;6016;41.928;25.556;2023-05-07T01:07:00;99143.47;;;15.07;66.52
11912;BME280;6016;41.928;25.556;2023-05-07T01:09:28;99330.25;;;16.24;66.28
11912;BME280;6016;41.928;25.556;2023-05-07T01:11:56;99150.47;;;15.00;65.85
11912;BME280;6016;41.928;25.556;2023-05-07T01:14:25;99340.22;;;16.22;66.51
11912;BME280;6016;41.928;25.556;2023-05-07T01:16:52;99316.31;;;16.05;66.30
11912;BME280;6016;41.928;25.556;2023-05-07T01:19:20;99342.41;;;16.18;65.97
11912;BME280;6016;41.928;25.556;2023-05-07T01:21:48;99339.09;;;16.08;66.21
11912;BME280;6016;41.928;25.556;2023-05-07T01:24:16;99330.09;;;16.09;65.91
11912;BME280;6016;41.928;25.556;2023-05-07T01:26:44;99336.28;;;16.09;66.75
11912;BME280;6016;41.928;25.556;2023-05-07T01:29:11;99211.38;;;15.18;66.60
11912;BME280;6016;41.928;25.556;2023-05-07T01:31:39;99316.50;;;15.79;66.50
11912;BME280;6016;41.928;25.556;2023-05-07T01:34:08;99317.84;;;15.66;66.30
11912;BME280;6016;41.928;25.556;2023-05-07T01:36:37;99230.78;;;15.10;66.41
11912;BME280;6016;41.928;25.556;2023-05-07T01:39:06;99252.22;;;15.25;66.98
11912;BME280;6016;41.928;25.556;2023-05-07T01:41:34;99235.63;;;15.07;67.55
11912;BME280;6016;41.928;25.556;2023-05-07T01:44:03;99253.72;;;15.28;66.95
11912;BME280;6016;41.928;25.556;2023-05-07T01:46:31;99320.66;;;15.73;66.31
11912;BME280;6016;41.928;25.556;2023-05-07T01:48:59;99251.06;;;15.28;66.17
11912;BME280;6016;41.928;25.556;2023-05-07T01:51:25;99251.41;;;15.25;66.96
11912;BME280;6016;41.928;25.556;2023-05-07T01:53:52;99168.84;;;14.68;66.69
11912;BME280;6016;41.928;25.556;2023-05-07T01:56:19;99325.97;;;15.73;66.42
11912;BME280;6016;41.928;25.556;2023-05-07T01:58:48;99326.31;;;15.70;67.35
11912;BME280;6016;41.928;25.556;2023-05-07T02:01:16;99337.97;;;15.44;67.32
11912;BME280;6016;41.928;25.556;2023-05-07T02:03:43;99326.31;;;15.70;66.49
11912;BME280;6016;41.928;25.556;2023-05-07T02:06:10;98678.72;;;11.62;66.38
11912;BME280;6016;41.928;25.556;2023-05-07T02:08:37;99322.47;;;15.72;66.98
11912;BME280;6016;41.928;25.556;2023-05-07T02:11:03;99097.97;;;14.35;66.38
11912;BME280;6016;41.928;25.556;2023-05-07T02:13:32;99310.19;;;15.71;66.43
11912;BME280;6016;41.928;25.556;2023-05-07T02:16:01;99181.31;;;14.76;66.77
11912;BME280;6016;41.928;25.556;2023-05-07T02:18:28;99307.72;;;15.61;66.92
11912;BME280;6016;41.928;25.556;2023-05-07T02:20:55;99317.69;;;15.59;66.12
11912;BME280;6016;41.928;25.556;2023-05-07T02:23:22;99154.22;;;14.64;67.08
11912;BME280;6016;41.928;25.556;2023-05-07T02:25:49;99303.56;;;15.51;67.44
11912;BME280;6016;41.928;25.556;2023-05-07T02:28:15;99304.56;;;15.50;67.82
11912;BME280;6016;41.928;25.556;2023-05-07T02:30:42;99255.38;;;15.21;67.18
11912;BME280;6016;41.928;25.556;2023-05-07T02:33:10;99298.25;;;15.42;66.91
11912;BME280;6016;41.928;25.556;2023-05-07T02:35:37;99294.75;;;15.42;67.33
11912;BME280;6016;41.928;25.556;2023-05-07T02:38:04;99231.38;;;14.71;67.27
11912;BME280;6016;41.928;25.556;2023-05-07T02:40:31;99295.09;;;15.39;67.68
11912;BME280;6016;41.928;25.556;2023-05-07T02:43:04;99190.75;;;14.70;67.37
11912;BME280;6016;41.928;25.556;2023-05-07T02:45:31;99254.56;;;15.12;67.40
11912;BME280;6016;41.928;25.556;2023-05-07T02:47:57;99295.09;;;15.39;67.53
11912;BME280;6016;41.928;25.556;2023-05-07T02:50:26;99246.09;;;15.00;68.19
11912;BME280;6016;41.928;25.556;2023-05-07T02:52:53;99202.91;;;14.81;67.66
11912;BME280;6016;41.928;25.556;2023-05-07T02:55:19;99293.94;;;15.41;68.13
11912;BME280;6016;41.928;25.556;2023-05-07T02:57:46;99300.22;;;15.32;67.44
11912;BME280;6016;41.928;25.556;2023-05-07T03:00:15;99293.09;;;15.32;67.49
11912;BME280;6016;41.928;25.556;2023-05-07T03:02:43;99215.84;;;14.84;67.10
11912;BME280;6016;41.928;25.556;2023-05-07T03:05:10;99293.09;;;15.32;67.94
11912;BME280;6016;41.928;25.556;2023-05-07T03:07:38;99288.09;;;15.38;67.90
11912;BME280;6016;41.928;25.556;2023-05-07T03:10:06;99287.75;;;15.41;67.44
11912;BME280;6016;41.928;25.556;2023-05-07T03:12:33;99290.25;;;15.42;67.50
11912;BME280;6016;41.928;25.556;2023-05-07T03:15:00;99289.44;;;15.33;66.91
11912;BME280;6016;41.928;25.556;2023-05-07T03:17:27;99291.59;;;15.38;67.25
11912;BME280;6016;41.928;25.556;2023-05-07T03:19:54;99191.63;;;14.79;67.75
11912;BME280;6016;41.928;25.556;2023-05-07T03:22:21;99084.34;;;14.14;67.44
11912;BME280;6016;41.928;25.556;2023-05-07T03:24:49;99298.25;;;15.42;66.71
11912;BME280;6016;41.928;25.556;2023-05-07T03:27:16;99253.69;;;14.95;67.04
11912;BME280;6016;41.928;25.556;2023-05-07T03:29:42;99226.81;;;14.89;67.15
11912;BME280;6016;41.928;25.556;2023-05-07T03:32:09;99289.44;;;15.42;67.28
11912;BME280;6016;41.928;25.556;2023-05-07T03:34:36;99291.78;;;15.45;67.05
11912;BME280;6016;41.928;25.556;2023-05-07T03:37:03;99290.13;;;15.44;67.41
11912;BME280;6016;41.928;25.556;2023-05-07T03:39:29;98735.84;;;11.89;67.05
11912;BME280;6016;41.928;25.556;2023-05-07T03:41:58;99287.59;;;15.42;67.39
11912;BME280;6016;41.928;25.556;2023-05-07T03:44:26;99295.41;;;15.36;67.13
11912;BME280;6016;41.928;25.556;2023-05-07T03:46:53;99304.88;;;15.30;67.21
11912;BME280;6016;41.928;25.556;2023-05-07T03:49:20;99303.22;;;15.29;67.37
11912;BME280;6016;41.928;25.556;2023-05-07T03:51:47;99244.00;;;14.60;67.64
11912;BME280;6016;41.928;25.556;2023-05-07T03:54:14;99300.56;;;15.21;67.34
11912;BME280;6016;41.928;25.556;2023-05-07T03:56:41;99220.72;;;14.38;67.29
11912;BME280;6016;41.928;25.556;2023-05-07T03:59:09;99308.72;;;15.19;68.04
11912;BME280;6016;41.928;25.556;2023-05-07T04:01:36;99313.53;;;15.24;67.99
11912;BME280;6016;41.928;25.556;2023-05-07T04:04:03;99311.84;;;15.23;67.97
11912;BME280;6016;41.928;25.556;2023-05-07T04:06:29;99316.84;;;15.26;68.06
11912;BME280;6016;41.928;25.556;2023-05-07T04:08:57;99318.31;;;15.28;68.27
11912;BME280;6016;41.928;25.556;2023-05-07T04:11:23;99318.84;;;15.32;67.92
11912;BME280;6016;41.928;25.556;2023-05-07T04:13:50;99327.81;;;15.31;67.72
11912;BME280;6016;41.928;25.556;2023-05-07T04:16:19;99321.81;;;15.29;68.04
11912;BME280;6016;41.928;25.556;2023-05-07T04:18:45;99239.75;;;14.84;68.00
11912;BME280;6016;41.928;25.556;2023-05-07T04:21:15;99330.28;;;15.41;68.49
11912;BME280;6016;41.928;25.556;2023-05-07T04:23:42;99303.56;;;15.26;68.17
11912;BME280;6016;41.928;25.556;2023-05-07T04:26:09;99331.47;;;15.38;68.87
11912;BME280;6016;41.928;25.556;2023-05-07T04:28:36;99333.97;;;15.48;68.36
11912;BME280;6016;41.928;25.556;2023-05-07T04:31:03;99336.13;;;15.53;68.47
11912;BME280;6016;41.928;25.556;2023-05-07T04:33:31;99332.13;;;15.57;68.73
11912;BME280;6016;41.928;25.556;2023-05-07T04:35:58;99257.72;;;15.15;68.34
11912;BME280;6016;41.928;25.556;2023-05-07T04:38:28;99331.47;;;15.63;68.26
11912;BME280;6016;41.928;25.556;2023-05-07T04:40:56;99339.78;;;15.43;68.86
11912;BME280;6016;41.928;25.556;2023-05-07T04:43:23;99308.22;;;15.40;69.04
11912;BME280;6016;41.928;25.556;2023-05-07T04:45:50;99276.47;;;15.22;68.86
11912;BME280;6016;41.928;25.556;2023-05-07T04:48:17;99346.75;;;15.69;68.95
11912;BME280;6016;41.928;25.556;2023-05-07T04:50:48;99352.22;;;15.76;68.90
11912;BME280;6016;41.928;25.556;2023-05-07T04:53:16;99349.75;;;15.83;69.06
11912;BME280;6016;41.928;25.556;2023-05-07T04:55:42;99353.59;;;15.80;68.61
11912;BME280;6016;41.928;25.556;2023-05-07T04:58:10;99273.81;;;15.22;68.67
11912;BME280;6016;41.928;25.556;2023-05-07T05:00:37;99247.25;;;15.14;68.52
11912;BME280;6016;41.928;25.556;2023-05-07T05:03:04;99361.38;;;15.98;68.38
11912;BME280;6016;41.928;25.556;2023-05-07T05:05:31;99242.41;;;15.09;68.69
11912;BME280;6016;41.928;25.556;2023-05-07T05:07:59;99368.06;;;16.02;68.74
11912;BME280;6016;41.928;25.556;2023-05-07T05:10:26;99371.22;;;16.06;68.89
11912;BME280;6016;41.928;25.556;2023-05-07T05:12:52;99368.00;;;16.11;68.64
11912;BME280;6016;41.928;25.556;2023-05-07T05:15:19;99376.50;;;16.14;69.42
11912;BME280;6016;41.928;25.556;2023-05-07T05:17:46;99379.00;;;16.16;69.27
11912;BME280;6016;41.928;25.556;2023-05-07T05:20:13;99374.19;;;16.11;69.86
11912;BME280;6016;41.928;25.556;2023-05-07T05:22:41;99379.50;;;16.20;69.29
11912;BME280;6016;41.928;25.556;2023-05-07T05:25:09;99378.31;;;16.22;69.67
11912;BME280;6016;41.928;25.556;2023-05-07T05:27:36;99384.63;;;16.29;70.13
11912;BME280;6016;41.928;25.556;2023-05-07T05:30:03;99347.72;;;16.10;70.15
11912;BME280;6016;41.928;25.556;2023-05-07T05:32:30;99353.88;;;16.19;69.17
11912;BME280;6016;41.928;25.556;2023-05-07T05:34:57;99379.47;;;16.28;68.86
11912;BME280;6016;41.928;25.556;2023-05-07T05:37:24;99377.31;;;16.23;69.46
11912;BME280;6016;41.928;25.556;2023-05-07T05:39:52;99381.47;;;16.26;69.46
11912;BME280;6016;41.928;25.556;2023-05-07T05:42:21;99388.66;;;16.25;69.58
11912;BME280;6016;41.928;25.556;2023-05-07T05:44:48;99383.78;;;16.29;69.36
11912;BME280;6016;41.928;25.556;2023-05-07T05:47:15;99392.94;;;16.35;69.47
11912;BME280;6016;41.928;25.556;2023-05-07T05:49:42;99392.78;;;16.28;69.92
11912;BME280;6016;41.928;25.556;2023-05-07T05:52:12;99400.09;;;16.34;69.56
11912;BME280;6016;41.928;25.556;2023-05-07T05:54:39;99392.75;;;16.44;69.24
11912;BME280;6016;41.928;25.556;2023-05-07T05:57:06;99398.53;;;16.56;69.82
11912;BME280;6016;41.928;25.556;2023-05-07T05:59:34;99396.88;;;16.64;69.45
11912;BME280;6016;41.928;25.556;2023-05-07T06:02:01;99404.31;;;16.68;68.27
11912;BME280;6016;41.928;25.556;2023-05-07T06:04:28;99402.63;;;16.76;68.16
11912;BME280;6016;41.928;25.556;2023-05-07T06:06:54;99394.94;;;16.81;68.36
11912;BME280;6016;41.928;25.556;2023-05-07T06:09:22;99406.75;;;16.86;67.61
11912;BME280;6016;41.928;25.556;2023-05-07T06:11:49;99400.75;;;16.84;68.01
11912;BME280;6016;41.928;25.556;2023-05-07T06:14:15;99262.28;;;16.05;67.53
11912;BME280;6016;41.928;25.556;2023-05-07T06:16:44;99405.06;;;16.94;66.60
11912;BME280;6016;41.928;25.556;2023-05-07T06:19:11;99401.22;;;16.96;65.86
11912;BME280;6016;41.928;25.556;2023-05-07T06:21:38;99398.06;;;17.01;65.74
11912;BME280;6016;41.928;25.556;2023-05-07T06:24:06;99405.88;;;17.02;66.10
11912;BME280;6016;41.928;25.556;2023-05-07T06:26:33;99060.50;;;14.80;65.99
11912;BME280;6016;41.928;25.556;2023-05-07T06:29:00;99408.66;;;17.09;66.54
11912;BME280;6016;41.928;25.556;2023-05-07T06:31:29;99342.50;;;16.81;65.87
11912;BME280;6016;41.928;25.556;2023-05-07T06:33:58;99234.91;;;16.27;65.53
11912;BME280;6016;41.928;25.556;2023-05-07T06:36:27;99301.56;;;16.74;66.48
11912;BME280;6016;41.928;25.556;2023-05-07T06:38:54;99397.09;;;17.49;67.15
11912;BME280;6016;41.928;25.556;2023-05-07T06:41:21;99400.25;;;17.52;67.57
11912;BME280;6016;41.928;25.556;2023-05-07T06:43:48;99400.19;;;17.61;66.37
11912;BME280;6016;41.928;25.556;2023-05-07T06:46:15;99396.22;;;17.56;66.27
11912;BME280;6016;41.928;25.556;2023-05-07T06:48:42;99142.50;;;16.13;65.40
11912;BME280;6016;41.928;25.556;2023-05-07T06:51:10;99084.97;;;15.72;64.98
11912;BME280;6016;41.928;25.556;2023-05-07T06:53:37;99353.72;;;17.55;64.80
11912;BME280;6016;41.928;25.556;2023-05-07T06:56:04;99391.25;;;17.92;65.11
11912;BME280;6016;41.928;25.556;2023-05-07T06:58:31;99406.06;;;18.03;64.21
11912;BME280;6016;41.928;25.556;2023-05-07T07:00:58;99401.53;;;18.03;63.80
11912;BME280;6016;41.928;25.556;2023-05-07T07:03:25;99407.72;;;18.04;65.79
11912;BME280;6016;41.928;25.556;2023-05-07T07:05:52;99388.38;;;18.02;63.94
11912;BME280;6016;41.928;25.556;2023-05-07T07:08:21;99400.56;;;18.19;62.13
11912;BME280;6016;41.928;25.556;2023-05-07T07:10:48;99401.28;;;18.13;62.72
11912;BME280;6016;41.928;25.556;2023-05-07T07:13:15;99406.19;;;18.39;63.55
11912;BME280;6016;41.928;25.556;2023-05-07T07:15:43;99325.13;;;17.64;62.06
11912;BME280;6016;41.928;25.556;2023-05-07T07:18:10;99311.28;;;17.98;61.16
11912;BME280;6016;41.928;25.556;2023-05-07T07:20:37;99414.03;;;18.56;62.24
11912;BME280;6016;41.928;25.556;2023-05-07T07:23:04;99321.94;;;18.07;62.05
11912;BME280;6016;41.928;25.556;2023-05-07T07:25:32;99416.34;;;18.59;63.07
11912;BME280;6016;41.928;25.556;2023-05-07T07:27:59;99416.06;;;18.69;60.00
11912;BME280;6016;41.928;25.556;2023-05-07T07:30:26;99414.66;;;18.73;59.60
11912;BME280;6016;41.928;25.556;2023-05-07T07:32:53;99391.66;;;18.42;61.49
11912;BME280;6016;41.928;25.556;2023-05-07T07:35:20;99419.63;;;18.76;60.76
11912;BME280;6016;41.928;25.556;2023-05-07T07:37:48;99422.41;;;18.83;61.08
11912;BME280;6016;41.928;25.556;2023-05-07T07:40:15;99301.09;;;18.32;58.93
11912;BME280;6016;41.928;25.556;2023-05-07T07:42:43;99430.13;;;19.23;58.43
11912;BME280;6016;41.928;25.556;2023-05-07T07:45:11;99412.00;;;19.40;57.32
11912;BME280;6016;41.928;25.556;2023-05-07T07:47:38;99426.59;;;19.81;57.29
11912;BME280;6016;41.928;25.556;2023-05-07T07:50:06;99429.53;;;19.86;58.12
11912;BME280;6016;41.928;25.556;2023-05-07T07:52:33;99344.94;;;19.42;57.46
11912;BME280;6016;41.928;25.556;2023-05-07T07:55:00;99435.81;;;19.93;57.19
11912;BME280;6016;41.928;25.556;2023-05-07T07:57:27;99433.81;;;20.02;57.92
11912;BME280;6016;41.928;25.556;2023-05-07T07:59:55;99432.13;;;20.23;57.76
11912;BME280;6016;41.928;25.556;2023-05-07T08:02:22;99429.44;;;20.23;56.28
11912;BME280;6016;41.928;25.556;2023-05-07T08:04:49;99325.41;;;19.70;57.05
11912;BME280;6016;41.928;25.556;2023-05-07T08:07:16;99424.16;;;20.30;55.08
11912;BME280;6016;41.928;25.556;2023-05-07T08:09:44;99433.16;;;20.57;55.71
11912;BME280;6016;41.928;25.556;2023-05-07T08:12:11;99379.22;;;20.32;55.44
11912;BME280;6016;41.928;25.556;2023-05-07T08:14:37;99436.13;;;20.69;53.29
11912;BME280;6016;41.928;25.556;2023-05-07T08:17:06;99382.63;;;20.19;55.13
11912;BME280;6016;41.928;25.556;2023-05-07T08:19:35;99427.56;;;20.52;52.85
11912;BME280;6016;41.928;25.556;2023-05-07T08:22:02;99427.34;;;20.53;54.18
11912;BME280;6016;41.928;25.556;2023-05-07T08:24:29;99363.25;;;20.17;54.47
11912;BME280;6016;41.928;25.556;2023-05-07T08:26:56;99416.53;;;20.69;50.30
11912;BME280;6016;41.928;25.556;2023-05-07T08:29:22;99420.72;;;20.78;50.81
11912;BME280;6016;41.928;25.556;2023-05-07T08:31:49;99415.22;;;20.86;51.60
11912;BME280;6016;41.928;25.556;2023-05-07T08:34:18;99376.16;;;20.77;50.90
11912;BME280;6016;41.928;25.556;2023-05-07T08:36:44;99419.69;;;21.21;50.14
11912;BME280;6016;41.928;25.556;2023-05-07T08:39:13;99417.63;;;21.23;50.02
11912;BME280;6016;41.928;25.556;2023-05-07T08:41:40;99385.38;;;21.10;49.49
11912;BME280;6016;41.928;25.556;2023-05-07T08:44:11;99419.53;;;21.43;49.26
11912;BME280;6016;41.928;25.556;2023-05-07T08:46:39;99382.72;;;21.16;47.30
11912;BME280;6016;41.928;25.556;2023-05-07T08:49:08;99419.16;;;21.59;45.73
11912;BME280;6016;41.928;25.556;2023-05-07T08:51:36;99418.09;;;21.54;49.25
11912;BME280;6016;41.928;25.556;2023-05-07T08:54:03;99338.75;;;21.11;47.33
11912;BME280;6016;41.928;25.556;2023-05-07T08:56:31;99424.38;;;21.74;46.66
11912;BME280;6016;41.928;25.556;2023-05-07T08:58:58;99416.72;;;21.91;46.74
11912;BME280;6016;41.928;25.556;2023-05-07T09:01:25;99416.09;;;21.83;47.37
11912;BME280;6016;41.928;25.556;2023-05-07T09:03:53;99404.94;;;21.72;44.64
11912;BME280;6016;41.928;25.556;2023-05-07T09:06:19;99415.47;;;21.81;46.16
11912;BME280;6016;41.928;25.556;2023-05-07T09:08:52;99352.00;;;21.39;47.48
11912;BME280;6016;41.928;25.556;2023-05-07T09:11:22;99415.91;;;21.91;45.95
11912;BME280;6016;41.928;25.556;2023-05-07T09:13:49;99407.22;;;21.96;45.63
11912;BME280;6016;41.928;25.556;2023-05-07T09:16:20;99410.31;;;22.19;46.01
11912;BME280;6016;41.928;25.556;2023-05-07T09:18:50;99403.25;;;22.39;44.97
11912;BME280;6016;41.928;25.556;2023-05-07T09:21:18;99226.91;;;21.45;43.65
11912;BME280;6016;41.928;25.556;2023-05-07T09:23:45;99399.47;;;22.67;45.23
11912;BME280;6016;41.928;25.556;2023-05-07T09:26:14;99397.94;;;22.91;43.47
11912;BME280;6016;41.928;25.556;2023-05-07T09:28:41;99200.63;;;21.81;42.07
11912;BME280;6016;41.928;25.556;2023-05-07T09:31:09;99350.38;;;22.85;43.09
11912;BME280;6016;41.928;25.556;2023-05-07T09:33:36;99398.13;;;23.42;43.56
11912;BME280;6016;41.928;25.556;2023-05-07T09:36:04;99376.81;;;23.40;41.36
11912;BME280;6016;41.928;25.556;2023-05-07T09:38:31;99395.66;;;23.40;42.47
11912;BME280;6016;41.928;25.556;2023-05-07T09:41:02;99332.47;;;23.04;44.77
11912;BME280;6016;41.928;25.556;2023-05-07T09:43:33;99363.00;;;23.30;45.37
11912;BME280;6016;41.928;25.556;2023-05-07T09:46:03;99360.75;;;23.52;43.84
11912;BME280;6016;41.928;25.556;2023-05-07T09:48:30;99362.94;;;23.37;44.56
11912;BME280;6016;41.928;25.556;2023-05-07T09:51:02;99360.94;;;23.57;44.30
11912;BME280;6016;41.928;25.556;2023-05-07T09:53:31;99364.41;;;23.65;42.17
11912;BME280;6016;41.928;25.556;2023-05-07T09:56:00;99280.16;;;23.25;41.37
11912;BME280;6016;41.928;25.556;2023-05-07T09:58:28;99358.22;;;23.57;42.99
11912;BME280;6016;41.928;25.556;2023-05-07T10:00:57;99356.31;;;23.39;41.50
11912;BME280;6016;41.928;25.556;2023-05-07T10:03:24;99307.81;;;22.68;42.89
11912;BME280;6016;41.928;25.556;2023-05-07T10:05:55;99367.03;;;23.07;44.06
11912;BME280;6016;41.928;25.556;2023-05-07T10:08:21;99364.81;;;22.97;42.03
11912;BME280;6016;41.928;25.556;2023-05-07T10:10:49;99361.25;;;23.03;42.63
11912;BME280;6016;41.928;25.556;2023-05-07T10:13:17;99358.72;;;23.15;42.03
11912;BME280;6016;41.928;25.556;2023-05-07T10:15:45;99359.75;;;23.14;42.18
11912;BME280;6016;41.928;25.556;2023-05-07T10:18:15;99354.34;;;23.21;40.96
11912;BME280;6016;41.928;25.556;2023-05-07T10:20:45;99187.47;;;22.18;41.92
11912;BME280;6016;41.928;25.556;2023-05-07T10:23:15;99244.41;;;22.54;43.09
11912;BME280;6016;41.928;25.556;2023-05-07T10:25:44;99348.28;;;23.32;41.33
11912;BME280;6016;41.928;25.556;2023-05-07T10:28:12;99282.09;;;22.86;43.05
11912;BME280;6016;41.928;25.556;2023-05-07T10:30:47;99307.16;;;22.80;41.61
11912;BME280;6016;41.928;25.556;2023-05-07T10:33:24;99341.56;;;23.42;40.23
11912;BME280;6016;41.928;25.556;2023-05-07T10:35:56;99347.16;;;23.47;40.64
11912;BME280;6016;41.928;25.556;2023-05-07T10:38:24;99340.06;;;23.53;37.74
11912;BME280;6016;41.928;25.556;2023-05-07T10:40:52;99336.09;;;23.55;37.22
11912;BME280;6016;41.928;25.556;2023-05-07T10:43:19;99314.78;;;23.54;39.05
11912;BME280;6016;41.928;25.556;2023-05-07T10:46:09;99339.22;;;23.52;40.16
11912;BME280;6016;41.928;25.556;2023-05-07T10:49:06;99335.63;;;23.65;36.70
11912;BME280;6016;41.928;25.556;2023-05-07T10:51:33;99310.59;;;23.32;37.05
11912;BME280;6016;41.928;25.556;2023-05-07T10:54:22;99323.34;;;23.69;37.59
11912;BME280;6016;41.928;25.556;2023-05-07T10:56:50;99251.97;;;23.35;35.48
11912;BME280;6016;41.928;25.556;2023-05-07T10:59:33;99292.72;;;23.89;35.60
11912;BME280;6016;41.928;25.556;2023-05-07T11:02:06;99218.25;;;23.32;35.34
11912;BME280;6016;41.928;25.556;2023-05-07T11:04:36;99333.06;;;23.96;36.18
11912;BME280;6016;41.928;25.556;2023-05-07T11:07:29;99323.66;;;24.05;34.67
11912;BME280;6016;41.928;25.556;2023-05-07T11:09:57;99318.59;;;23.90;37.82
11912;BME280;6016;41.928;25.556;2023-05-07T11:12:49;99313.88;;;23.85;34.41
11912;BME280;6016;41.928;25.556;2023-05-07T11:15:40;99306.53;;;23.93;35.34
11912;BME280;6016;41.928;25.556;2023-05-07T11:18:09;99311.81;;;24.06;37.75
11912;BME280;6016;41.928;25.556;2023-05-07T11:20:51;99310.66;;;23.95;38.25
11912;BME280;6016;41.928;25.556;2023-05-07T11:23:56;99311.13;;;23.92;38.57
11912;BME280;6016;41.928;25.556;2023-05-07T11:26:24;99311.16;;;24.11;38.21
11912;BME280;6016;41.928;25.556;2023-05-07T11:28:52;99303.75;;;24.25;36.17
11912;BME280;6016;41.928;25.556;2023-05-07T11:31:24;99321.56;;;24.44;36.45
11912;BME280;6016;41.928;25.556;2023-05-07T11:33:51;99305.69;;;24.55;33.85
11912;BME280;6016;41.928;25.556;2023-05-07T11:36:21;99310.31;;;24.66;36.46
11912;BME280;6016;41.928;25.556;2023-05-07T11:38:48;99299.88;;;24.89;33.40
11912;BME280;6016;41.928;25.556;2023-05-07T11:41:16;99092.03;;;23.42;34.79
11912;BME280;6016;41.928;25.556;2023-05-07T11:43:58;99270.91;;;24.65;35.22
11912;BME280;6016;41.928;25.556;2023-05-07T11:46:26;99284.19;;;24.97;35.78
11912;BME280;6016;41.928;25.556;2023-05-07T11:48:53;99299.16;;;25.24;33.27
11912;BME280;6016;41.928;25.556;2023-05-07T12:31:16;99232.81;;;25.28;32.45
11912;BME280;6016;41.928;25.556;2023-05-07T12:33:43;99241.38;;;25.13;34.83
11912;BME280;6016;41.928;25.556;2023-05-07T12:36:12;99220.59;;;25.02;32.40
11912;BME280;6016;41.928;25.556;2023-05-07T12:38:39;99254.59;;;25.57;35.42
11912;BME280;6016;41.928;25.556;2023-05-07T12:41:08;99166.97;;;25.17;33.80
11912;BME280;6016;41.928;25.556;2023-05-07T12:43:35;99128.94;;;25.07;34.20
11912;BME280;6016;41.928;25.556;2023-05-07T12:46:04;99245.41;;;25.94;32.30
11912;BME280;6016;41.928;25.556;2023-05-07T12:48:33;99163.34;;;25.23;34.57
11912;BME280;6016;41.928;25.556;2023-05-07T12:51:00;99215.13;;;25.56;32.93
11912;BME280;6016;41.928;25.556;2023-05-07T12:53:28;99237.31;;;25.70;32.03
11912;BME280;6016;41.928;25.556;2023-05-07T12:55:57;99235.53;;;25.76;33.38
11912;BME280;6016;41.928;25.556;2023-05-07T12:58:26;99139.59;;;25.13;33.62
11912;BME280;6016;41.928;25.556;2023-05-07T13:00:53;99226.59;;;25.87;32.25
11912;BME280;6016;41.928;25.556;2023-05-07T13:03:25;99230.72;;;25.90;33.45
11912;BME280;6016;41.928;25.556;2023-05-07T13:05:55;99274.56;;;25.68;32.81
11912;BME280;6016;41.928;25.556;2023-05-07T13:08:29;99234.25;;;25.78;31.78
11912;BME280;6016;41.928;25.556;2023-05-07T13:10:57;99226.25;;;25.48;35.47
11912;BME280;6016;41.928;25.556;2023-05-07T13:13:25;99222.53;;;25.49;34.05
11912;BME280;6016;41.928;25.556;2023-05-07T13:15:52;99157.00;;;25.18;34.52
11912;BME280;6016;41.928;25.556;2023-05-07T13:18:19;99220.88;;;25.60;34.69
11912;BME280;6016;41.928;25.556;2023-05-07T13:20:46;99205.28;;;25.62;33.23
11912;BME280;6016;41.928;25.556;2023-05-07T13:23:14;99035.97;;;24.55;31.90
11912;BME280;6016;41.928;25.556;2023-05-07T13:25:41;99116.38;;;25.00;34.23
11912;BME280;6016;41.928;25.556;2023-05-07T13:28:07;99207.97;;;25.62;33.38
11912;BME280;6016;41.928;25.556;2023-05-07T13:30:34;99202.53;;;25.74;32.18
11912;BME280;6016;41.928;25.556;2023-05-07T13:33:02;99202.09;;;25.65;34.24
11912;BME280;6016;41.928;25.556;2023-05-07T13:35:29;99203.81;;;25.71;33.64
11912;BME280;6016;41.928;25.556;2023-05-07T13:37:55;99209.09;;;25.78;33.30
11912;BME280;6016;41.928;25.556;2023-05-07T13:40:24;99179.91;;;25.63;32.71
11912;BME280;6016;41.928;25.556;2023-05-07T13:42:50;99202.66;;;25.79;34.16
11912;BME280;6016;41.928;25.556;2023-05-07T13:45:17;99196.56;;;25.72;31.82